Time;durP1;ratioP1;P1;durP2;ratioP2;P2;SDS_P1;SDS_P2;PMS_P1;PMS_P2;Temp;Humidity;BMP_temperature;BMP_pressure;BME280_temperature;BME280_humidity;BME280_pressure;Samples;Min_cycle;Max_cycle;Signal;HPM_P1;HPM_P2
2023/01/27 00:01:31;;;;;;;;;4.00;2.75;;;;;;;;4919959;28;45859;-76
2023/01/27 00:03:56;;;;;;;;;3.00;3.00;;;;;;;;4920307;28;45390;-77
2023/01/27 00:06:22;;;;;;;;;3.25;2.00;;;;;;;;4920232;28;45440;-77
2023/01/27 00:08:47;;;;;;;;;5.00;3.00;;;;;;;;4920117;28;45532;-76
2023/01/27 00:13:56;;;;;;;;;3.00;3.00;;;;;;;;4919113;28;45349;-77
2023/01/27 00:16:21;;;;;;;;;2.25;2.00;;;;;;;;4919948;28;45446;-76
2023/01/27 00:18:47;;;;;;;;;2.00;2.00;;;;;;;;4918555;28;45586;-76
2023/01/27 00:24:38;;;;;;;;;3.25;2.50;;;;;;;;4909183;28;45439;-76
2023/01/27 00:26:44;;;;;;;;;1.75;1.50;;;;;;;;4901411;28;45362;-76
2023/01/27 00:29:09;;;;;;;;;3.75;2.00;;;;;;;;4898224;28;45469;-77
2023/01/27 00:34:18;;;;;;;;;1.00;1.00;;;;;;;;4899907;28;45374;-77
2023/01/27 00:36:43;;;;;;;;;2.50;2.50;;;;;;;;4899866;28;45354;-77
2023/01/27 00:39:10;;;;;;;;;2.00;1.00;;;;;;;;4900746;28;45548;-77
2023/01/27 00:41:35;;;;;;;;;1.00;1.00;;;;;;;;4899737;28;45608;-77
2023/01/27 00:44:01;;;;;;;;;3.25;2.00;;;;;;;;4898116;28;45673;-78
2023/01/27 00:46:26;;;;;;;;;3.25;1.75;;;;;;;;4900015;28;45407;-77
2023/01/27 00:48:51;;;;;;;;;1.00;1.00;;;;;;;;4898435;28;45373;-78
2023/01/27 00:51:17;;;;;;;;;3.00;2.00;;;;;;;;4900003;28;46345;-76
2023/01/27 00:53:43;;;;;;;;;2.25;1.25;;;;;;;;4901555;28;45458;-77
2023/01/27 00:56:09;;;;;;;;;3.00;2.25;;;;;;;;4903875;28;45256;-77
2023/01/27 00:58:34;;;;;;;;;2.75;1.75;;;;;;;;4901757;28;45383;-77
2023/01/27 01:01:00;;;;;;;;;1.00;1.00;;;;;;;;4900716;28;47265;-77
2023/01/27 01:03:33;;;;;;;;;4.00;4.00;;;;;;;;4909531;28;45382;-77
2023/01/27 01:05:59;;;;;;;;;2.00;2.00;;;;;;;;4908741;28;45514;-77
2023/01/27 01:08:25;;;;;;;;;1.25;1.25;;;;;;;;4910571;28;45594;-77
2023/01/27 01:10:50;;;;;;;;;2.75;1.50;;;;;;;;4908535;28;46081;-77
2023/01/27 01:13:15;;;;;;;;;2.75;2.00;;;;;;;;4908892;28;45482;-77
2023/01/27 01:15:41;;;;;;;;;1.75;1.75;;;;;;;;4910333;28;45475;-76
2023/01/27 01:18:07;;;;;;;;;1.25;1.25;;;;;;;;4906453;28;45615;-77
2023/01/27 01:20:40;;;;;;;;;1.00;1.00;;;;;;;;4909253;28;46013;-77
2023/01/27 01:23:05;;;;;;;;;1.75;1.00;;;;;;;;4908029;28;45316;-78
2023/01/27 01:25:31;;;;;;;;;1.00;1.00;;;;;;;;4908034;28;45388;-77
2023/01/27 01:27:56;;;;;;;;;2.50;2.00;;;;;;;;4909672;28;45327;-77
2023/01/27 01:30:25;;;;;;;;;4.25;2.25;;;;;;;;4907728;28;45449;-78
2023/01/27 01:32:50;;;;;;;;;2.50;2.00;;;;;;;;4908757;28;45382;-77
2023/01/27 01:35:15;;;;;;;;;1.00;1.00;;;;;;;;4909320;28;45469;-77
2023/01/27 01:37:40;;;;;;;;;1.00;1.00;;;;;;;;4908294;28;45512;-77
2023/01/27 01:40:07;;;;;;;;;3.00;1.00;;;;;;;;4908202;28;45918;-77
2023/01/27 01:42:50;;;;;;;;;2.00;1.00;;;;;;;;4908585;28;45441;-77
2023/01/27 01:45:31;;;;;;;;;2.25;2.25;;;;;;;;4907953;28;45469;-78
2023/01/27 01:48:01;;;;;;;;;4.00;1.25;;;;;;;;4907919;28;45321;-78
2023/01/27 01:50:26;;;;;;;;;3.00;1.00;;;;;;;;4904770;28;45443;-78
2023/01/27 01:52:53;;;;;;;;;0.00;0.00;;;;;;;;4910226;28;45434;-77
2023/01/27 01:55:18;;;;;;;;;2.00;2.00;;;;;;;;4908143;28;45384;-78
2023/01/27 01:57:44;;;;;;;;;1.00;1.00;;;;;;;;4909817;28;45488;-77
2023/01/27 02:00:10;;;;;;;;;2.25;1.00;;;;;;;;4908043;28;45572;-78
2023/01/27 02:02:36;;;;;;;;;2.00;1.50;;;;;;;;4908354;28;46037;-77
2023/01/27 02:05:04;;;;;;;;;3.50;2.75;;;;;;;;4909529;28;45377;-77
2023/01/27 02:07:36;;;;;;;;;3.25;2.00;;;;;;;;4907724;28;45356;-77
2023/01/27 02:10:01;;;;;;;;;1.25;1.00;;;;;;;;4907277;28;45393;-77
2023/01/27 02:12:27;;;;;;;;;1.75;1.00;;;;;;;;4909328;28;45463;-78
2023/01/27 02:14:52;;;;;;;;;2.00;2.00;;;;;;;;4908235;28;45283;-77
2023/01/27 02:17:19;;;;;;;;;2.00;2.00;;;;;;;;4907707;28;45403;-77
2023/01/27 02:19:44;;;;;;;;;1.75;1.75;;;;;;;;4909140;28;46372;-75
2023/01/27 02:22:13;;;;;;;;;1.75;0.75;;;;;;;;4907780;28;45499;-77
2023/01/27 02:24:43;;;;;;;;;2.50;1.00;;;;;;;;4907560;28;45422;-76
2023/01/27 02:27:08;;;;;;;;;2.75;1.75;;;;;;;;4905292;28;45334;-77
2023/01/27 02:29:34;;;;;;;;;2.00;1.00;;;;;;;;4907929;28;45383;-76
2023/01/27 02:31:59;;;;;;;;;4.00;1.00;;;;;;;;4906934;28;45537;-76
2023/01/27 02:34:26;;;;;;;;;2.00;2.00;;;;;;;;4909054;28;45419;-77
2023/01/27 02:36:54;;;;;;;;;3.00;2.00;;;;;;;;4907758;28;45295;-76
2023/01/27 02:39:21;;;;;;;;;6.75;1.50;;;;;;;;4906962;28;45561;-76
2023/01/27 02:41:51;;;;;;;;;2.25;0.50;;;;;;;;4903951;28;45358;-77
2023/01/27 02:44:16;;;;;;;;;2.00;1.00;;;;;;;;4906152;28;45497;-77
2023/01/27 02:46:42;;;;;;;;;6.75;1.75;;;;;;;;4907140;28;45390;-77
2023/01/27 02:49:07;;;;;;;;;3.00;1.00;;;;;;;;4908838;28;45415;-78
2023/01/27 02:51:32;;;;;;;;;2.50;1.00;;;;;;;;4908462;28;45527;-78
2023/01/27 02:53:57;;;;;;;;;1.00;1.00;;;;;;;;4907591;28;45446;-77
2023/01/27 02:56:22;;;;;;;;;1.00;1.00;;;;;;;;4909112;28;45509;-78
2023/01/27 02:58:48;;;;;;;;;1.25;1.00;;;;;;;;4907366;28;45462;-76
2023/01/27 03:01:13;;;;;;;;;1.25;1.25;;;;;;;;4908151;28;45426;-78
2023/01/27 03:03:45;;;;;;;;;3.00;0.00;;;;;;;;4908523;28;45366;-77
2023/01/27 03:06:11;;;;;;;;;1.25;1.25;;;;;;;;4905821;28;45381;-78
2023/01/27 03:08:36;;;;;;;;;1.00;1.00;;;;;;;;4907393;28;45388;-76
2023/01/27 03:11:02;;;;;;;;;1.25;1.00;;;;;;;;4908455;28;45595;-77
2023/01/27 03:13:27;;;;;;;;;4.75;1.00;;;;;;;;4908004;28;45373;-76
2023/01/27 03:18:36;;;;;;;;;1.00;1.00;;;;;;;;4906844;28;45905;-77
2023/01/27 03:21:03;;;;;;;;;1.25;1.25;;;;;;;;4906726;28;45401;-77
2023/01/27 03:23:28;;;;;;;;;3.00;2.00;;;;;;;;4908183;28;45356;-76
2023/01/27 03:25:53;;;;;;;;;3.00;2.00;;;;;;;;4907321;28;45486;-76
2023/01/27 03:28:19;;;;;;;;;2.00;1.00;;;;;;;;4906926;28;45351;-77
2023/01/27 03:30:44;;;;;;;;;1.75;1.75;;;;;;;;4907021;28;45289;-76
2023/01/27 03:33:09;;;;;;;;;1.50;1.50;;;;;;;;4907032;28;45378;-77
2023/01/27 03:35:38;;;;;;;;;3.00;2.00;;;;;;;;4907591;28;45272;-78
2023/01/27 03:46:21;;;;;;;;;2.75;2.00;;;;;;;;4906599;28;45475;-78
2023/01/27 03:48:48;;;;;;;;;4.25;2.25;;;;;;;;4904870;28;48097;-79
2023/01/27 03:51:13;;;;;;;;;1.50;1.50;;;;;;;;4906773;28;45495;-79
2023/01/27 03:53:38;;;;;;;;;2.00;2.00;;;;;;;;4908864;28;45440;-79
2023/01/27 03:56:05;;;;;;;;;1.00;1.00;;;;;;;;4908909;28;45503;-79
2023/01/27 03:58:31;;;;;;;;;2.00;2.00;;;;;;;;4910900;28;46177;-78
2023/01/27 04:00:59;;;;;;;;;2.25;2.25;;;;;;;;4910629;28;45443;-79
2023/01/27 04:08:55;;;;;;;;;1.00;1.00;;;;;;;;4909819;28;45418;-78
2023/01/27 04:14:05;;;;;;;;;7.25;2.50;;;;;;;;4911175;28;45393;-78
2023/01/27 04:16:30;;;;;;;;;2.00;2.00;;;;;;;;4911497;28;45462;-77
2023/01/27 04:18:56;;;;;;;;;2.00;2.00;;;;;;;;4910515;28;45379;-77
2023/01/27 04:21:22;;;;;;;;;2.00;1.00;;;;;;;;4909019;28;45326;-77
2023/01/27 04:23:47;;;;;;;;;2.75;2.75;;;;;;;;4910829;28;45329;-76
2023/01/27 04:26:13;;;;;;;;;1.00;1.00;;;;;;;;4908678;28;45614;-77
2023/01/27 04:28:38;;;;;;;;;1.00;1.00;;;;;;;;4909587;28;46016;-77
2023/01/27 04:31:03;;;;;;;;;0.00;0.00;;;;;;;;4908954;28;45366;-77
2023/01/27 04:33:28;;;;;;;;;1.00;1.00;;;;;;;;4909252;28;45341;-77
2023/01/27 04:35:54;;;;;;;;;2.00;2.00;;;;;;;;4908339;28;45597;-76
2023/01/27 04:38:19;;;;;;;;;1.00;0.25;;;;;;;;4910548;28;45569;-77
2023/01/27 04:40:44;;;;;;;;;2.75;1.25;;;;;;;;4908686;28;45505;-77
2023/01/27 04:43:10;;;;;;;;;1.00;1.00;;;;;;;;4911536;28;45301;-78
2023/01/27 04:45:35;;;;;;;;;2.25;1.75;;;;;;;;4910137;28;45459;-77
2023/01/27 04:48:00;;;;;;;;;0.00;0.00;;;;;;;;4931520;28;47495;-78
2023/01/27 04:50:25;;;;;;;;;1.25;1.00;;;;;;;;4910472;28;45410;-78
2023/01/27 04:52:50;;;;;;;;;1.00;1.00;;;;;;;;4910080;28;45282;-78
2023/01/27 04:55:15;;;;;;;;;1.00;1.00;;;;;;;;4909423;28;45525;-78
2023/01/27 04:57:41;;;;;;;;;1.00;1.00;;;;;;;;4910670;28;46563;-78
2023/01/27 05:00:06;;;;;;;;;1.00;1.00;;;;;;;;4907944;28;45234;-78
2023/01/27 05:02:32;;;;;;;;;0.00;0.00;;;;;;;;4909540;28;45438;-77
2023/01/27 05:04:57;;;;;;;;;1.00;0.75;;;;;;;;4909039;28;45336;-78
2023/01/27 05:07:22;;;;;;;;;1.00;1.00;;;;;;;;4909463;28;47029;-76
2023/01/27 05:09:47;;;;;;;;;1.00;1.00;;;;;;;;4908654;28;45287;-77
2023/01/27 05:12:13;;;;;;;;;0.75;0.75;;;;;;;;4909765;28;45299;-78
2023/01/27 05:14:38;;;;;;;;;2.50;1.00;;;;;;;;4910113;28;45392;-77
2023/01/27 05:17:03;;;;;;;;;2.00;1.00;;;;;;;;4910190;28;46339;-78
2023/01/27 05:19:28;;;;;;;;;1.75;0.75;;;;;;;;4908410;28;45317;-78
2023/01/27 05:21:53;;;;;;;;;0.50;0.50;;;;;;;;4909916;28;45339;-78
2023/01/27 05:24:19;;;;;;;;;2.00;1.00;;;;;;;;4909864;28;45255;-77
2023/01/27 05:26:44;;;;;;;;;1.50;1.50;;;;;;;;4907059;28;45710;-77
2023/01/27 05:29:09;;;;;;;;;1.25;1.25;;;;;;;;4909798;28;45359;-77
2023/01/27 05:31:34;;;;;;;;;3.00;2.00;;;;;;;;4908809;28;45411;-77
2023/01/27 05:34:00;;;;;;;;;2.25;1.25;;;;;;;;4908289;28;45314;-78
2023/01/27 05:36:26;;;;;;;;;1.75;1.00;;;;;;;;4909935;28;45401;-77
2023/01/27 05:38:52;;;;;;;;;2.25;2.25;;;;;;;;4908410;28;45248;-77
2023/01/27 05:41:18;;;;;;;;;2.00;2.00;;;;;;;;4908537;28;45494;-78
2023/01/27 05:43:45;;;;;;;;;2.00;1.00;;;;;;;;4909765;28;45497;-77
2023/01/27 05:46:13;;;;;;;;;2.50;2.50;;;;;;;;4908097;28;46030;-77
2023/01/27 05:48:40;;;;;;;;;1.00;1.00;;;;;;;;4908114;28;45326;-77
2023/01/27 05:51:05;;;;;;;;;4.00;2.50;;;;;;;;4909738;28;45571;-78
2023/01/27 05:53:31;;;;;;;;;4.00;2.00;;;;;;;;4909149;28;45524;-77
2023/01/27 05:55:56;;;;;;;;;1.25;1.25;;;;;;;;4908617;28;46413;-77
2023/01/27 05:58:22;;;;;;;;;1.25;1.25;;;;;;;;4909553;28;45565;-77
2023/01/27 06:00:47;;;;;;;;;2.50;2.00;;;;;;;;4902113;28;45363;-77
2023/01/27 06:03:13;;;;;;;;;2.00;1.75;;;;;;;;4908372;28;45327;-77
2023/01/27 06:05:38;;;;;;;;;3.50;2.00;;;;;;;;4907783;28;45751;-76
2023/01/27 06:08:04;;;;;;;;;1.00;1.00;;;;;;;;4909463;28;45406;-77
2023/01/27 06:10:30;;;;;;;;;2.25;2.00;;;;;;;;4907924;28;45854;-75
2023/01/27 06:12:56;;;;;;;;;3.75;2.75;;;;;;;;4907312;28;45530;-77
2023/01/27 06:15:21;;;;;;;;;3.00;2.50;;;;;;;;4908175;28;46220;-76
2023/01/27 06:17:46;;;;;;;;;4.00;3.00;;;;;;;;4907082;28;45276;-77
2023/01/27 06:20:11;;;;;;;;;1.50;1.50;;;;;;;;4909230;28;45429;-75
2023/01/27 06:22:36;;;;;;;;;2.50;1.50;;;;;;;;4908868;28;45366;-77
2023/01/27 06:25:02;;;;;;;;;1.75;1.75;;;;;;;;4905883;28;46355;-77
2023/01/27 06:27:27;;;;;;;;;2.00;2.00;;;;;;;;4903903;28;45323;-78
2023/01/27 06:29:52;;;;;;;;;3.50;2.75;;;;;;;;4909175;28;45297;-76
2023/01/27 06:32:17;;;;;;;;;3.25;2.75;;;;;;;;4908021;28;45431;-77
2023/01/27 06:34:42;;;;;;;;;4.50;2.00;;;;;;;;4910167;28;45481;-76
2023/01/27 06:37:08;;;;;;;;;2.50;2.50;;;;;;;;4906676;28;45553;-77
2023/01/27 06:39:33;;;;;;;;;4.25;3.75;;;;;;;;4907411;28;45449;-76
2023/01/27 06:41:58;;;;;;;;;2.25;2.00;;;;;;;;4906342;28;45342;-78
2023/01/27 06:44:23;;;;;;;;;3.25;2.00;;;;;;;;4909076;28;45492;-77
2023/01/27 06:46:48;;;;;;;;;5.00;3.00;;;;;;;;4904850;28;45687;-78
2023/01/27 06:49:14;;;;;;;;;0.75;0.75;;;;;;;;4908236;28;45405;-77
2023/01/27 06:51:39;;;;;;;;;3.00;2.00;;;;;;;;4910926;28;45362;-77
2023/01/27 06:54:04;;;;;;;;;3.25;2.75;;;;;;;;4917800;28;45421;-77
2023/01/27 06:56:29;;;;;;;;;2.75;2.75;;;;;;;;4917454;28;45452;-77
2023/01/27 06:58:54;;;;;;;;;3.75;3.75;;;;;;;;4917483;28;45528;-77
2023/01/27 07:01:20;;;;;;;;;4.00;4.00;;;;;;;;4917784;28;45476;-78
2023/01/27 07:03:45;;;;;;;;;2.25;2.25;;;;;;;;4909363;28;45331;-77
2023/01/27 07:06:11;;;;;;;;;6.25;3.00;;;;;;;;4878882;29;45506;-77
2023/01/27 07:08:36;;;;;;;;;1.75;1.75;;;;;;;;4879536;29;45346;-76
2023/01/27 07:11:02;;;;;;;;;3.00;3.00;;;;;;;;4879491;29;45212;-77
2023/01/27 07:13:27;;;;;;;;;3.50;3.50;;;;;;;;4879262;29;45506;-75
2023/01/27 07:15:53;;;;;;;;;4.00;3.00;;;;;;;;4879509;29;45322;-76
2023/01/27 07:18:19;;;;;;;;;3.50;3.00;;;;;;;;4894192;28;45487;-76
2023/01/27 07:20:44;;;;;;;;;4.00;2.75;;;;;;;;4897262;28;45427;-75
2023/01/27 07:23:09;;;;;;;;;8.75;4.75;;;;;;;;4879961;29;45542;-77
2023/01/27 07:25:34;;;;;;;;;6.50;4.00;;;;;;;;4886475;29;45349;-76
2023/01/27 07:28:00;;;;;;;;;3.75;3.00;;;;;;;;4879552;29;45743;-76
2023/01/27 07:30:26;;;;;;;;;3.50;2.00;;;;;;;;4880655;29;45362;-75
2023/01/27 07:32:53;;;;;;;;;5.50;5.50;;;;;;;;4882533;29;46029;-76
2023/01/27 07:35:18;;;;;;;;;3.50;3.00;;;;;;;;4897997;28;45327;-77
2023/01/27 07:37:43;;;;;;;;;6.50;5.00;;;;;;;;4882926;29;45311;-76
2023/01/27 07:40:09;;;;;;;;;2.00;2.00;;;;;;;;4897085;29;45335;-75
2023/01/27 07:42:34;;;;;;;;;3.00;3.00;;;;;;;;4882468;29;45708;-76
2023/01/27 07:44:59;;;;;;;;;2.50;2.00;;;;;;;;4881979;29;45332;-77
2023/01/27 07:47:25;;;;;;;;;8.25;5.50;;;;;;;;4882588;29;45390;-77
2023/01/27 07:49:50;;;;;;;;;2.50;1.00;;;;;;;;4882446;29;45590;-77
2023/01/27 07:52:15;;;;;;;;;8.00;7.00;;;;;;;;4897676;28;45444;-77
2023/01/27 07:54:40;;;;;;;;;4.25;3.75;;;;;;;;4918781;28;45370;-80
2023/01/27 07:57:05;;;;;;;;;2.25;2.25;;;;;;;;4919868;28;45356;-83
2023/01/27 07:59:31;;;;;;;;;8.00;4.75;;;;;;;;4920231;28;45401;-78
2023/01/27 08:01:56;;;;;;;;;5.75;4.00;;;;;;;;4920043;28;45525;-81
2023/01/27 08:04:21;;;;;;;;;6.00;5.50;;;;;;;;4920038;28;45467;-80
2023/01/27 08:06:46;;;;;;;;;6.00;4.00;;;;;;;;4920280;28;45458;-80
2023/01/27 08:09:11;;;;;;;;;11.00;4.00;;;;;;;;4920379;28;45403;-80
2023/01/27 08:11:37;;;;;;;;;2.50;2.00;;;;;;;;4919879;28;46377;-80
2023/01/27 08:14:02;;;;;;;;;2.25;2.25;;;;;;;;4920317;28;45306;-80
2023/01/27 08:16:27;;;;;;;;;8.25;3.25;;;;;;;;4920244;28;45366;-81
2023/01/27 08:18:53;;;;;;;;;6.50;6.50;;;;;;;;4919955;28;45479;-80
2023/01/27 08:21:18;;;;;;;;;4.75;4.75;;;;;;;;4919906;28;45586;-80
2023/01/27 08:23:44;;;;;;;;;2.75;2.75;;;;;;;;4919959;28;45323;-80
2023/01/27 08:26:09;;;;;;;;;4.00;4.00;;;;;;;;4919914;28;45568;-80
2023/01/27 08:28:35;;;;;;;;;10.00;8.00;;;;;;;;4919732;28;45535;-80
2023/01/27 08:31:07;;;;;;;;;10.00;8.25;;;;;;;;4919523;28;45452;-79
2023/01/27 08:33:33;;;;;;;;;7.50;6.25;;;;;;;;4919683;28;45227;-79
2023/01/27 08:36:02;;;;;;;;;4.00;3.00;;;;;;;;4919953;28;45308;-80
2023/01/27 08:38:27;;;;;;;;;8.25;6.00;;;;;;;;4919868;28;45440;-80
2023/01/27 08:40:52;;;;;;;;;3.00;3.00;;;;;;;;4918440;28;45429;-79
2023/01/27 08:43:19;;;;;;;;;4.75;4.00;;;;;;;;4918232;28;45426;-80
2023/01/27 08:45:45;;;;;;;;;9.50;7.25;;;;;;;;4919866;28;45444;-78
2023/01/27 08:48:11;;;;;;;;;8.75;7.25;;;;;;;;4919690;28;45443;-82
2023/01/27 08:50:36;;;;;;;;;7.00;3.75;;;;;;;;4919366;28;45431;-80
2023/01/27 08:53:03;;;;;;;;;4.50;4.50;;;;;;;;4919409;28;45450;-80
2023/01/27 08:55:28;;;;;;;;;7.00;6.00;;;;;;;;4918354;28;45342;-78
2023/01/27 08:57:54;;;;;;;;;7.25;5.50;;;;;;;;4919601;28;45470;-78
2023/01/27 09:00:19;;;;;;;;;7.00;6.25;;;;;;;;4918297;28;47501;-78
2023/01/27 09:02:45;;;;;;;;;6.50;5.00;;;;;;;;4918080;28;45302;-78
2023/01/27 09:05:10;;;;;;;;;5.50;5.50;;;;;;;;4919617;28;45303;-78
2023/01/27 09:07:36;;;;;;;;;10.25;9.25;;;;;;;;4919456;28;45207;-77
2023/01/27 09:10:01;;;;;;;;;3.50;2.25;;;;;;;;4919084;28;47445;-78
2023/01/27 09:12:26;;;;;;;;;7.75;6.25;;;;;;;;4919410;28;45311;-77
2023/01/27 09:14:52;;;;;;;;;5.50;3.00;;;;;;;;4918210;28;45282;-77
2023/01/27 09:17:18;;;;;;;;;9.00;6.00;;;;;;;;4919442;28;45322;-78
2023/01/27 09:19:44;;;;;;;;;8.50;7.50;;;;;;;;4918766;28;45318;-77
2023/01/27 09:22:09;;;;;;;;;8.75;8.25;;;;;;;;4919110;28;45330;-77
2023/01/27 09:24:34;;;;;;;;;6.00;6.00;;;;;;;;4919241;28;45264;-76
2023/01/27 09:26:59;;;;;;;;;11.00;8.00;;;;;;;;4919336;28;45348;-77
2023/01/27 09:29:24;;;;;;;;;12.75;7.50;;;;;;;;4917828;28;46233;-77
2023/01/27 09:31:50;;;;;;;;;5.25;5.25;;;;;;;;4919265;28;45396;-77
2023/01/27 09:34:16;;;;;;;;;6.50;4.25;;;;;;;;4919412;28;45342;-77
2023/01/27 09:36:45;;;;;;;;;11.50;8.25;;;;;;;;4919590;28;45351;-76
2023/01/27 09:39:11;;;;;;;;;7.50;6.00;;;;;;;;4919172;28;45388;-77
2023/01/27 09:41:42;;;;;;;;;8.25;6.00;;;;;;;;4922028;28;45381;-76
2023/01/27 09:44:22;;;;;;;;;12.50;8.00;;;;;;;;4921240;28;45382;-76
2023/01/27 09:46:56;;;;;;;;;7.00;4.75;;;;;;;;4919341;28;45504;-76
2023/01/27 09:49:22;;;;;;;;;6.75;6.75;;;;;;;;4918574;28;46271;-77
2023/01/27 09:51:50;;;;;;;;;8.25;8.25;;;;;;;;4918574;28;45350;-78
2023/01/27 09:54:15;;;;;;;;;7.00;5.25;;;;;;;;4918154;28;45395;-78
2023/01/27 09:56:56;;;;;;;;;6.50;5.75;;;;;;;;4918765;28;45283;-77
2023/01/27 09:59:21;;;;;;;;;8.50;6.50;;;;;;;;4918252;28;45433;-77
2023/01/27 10:01:56;;;;;;;;;8.50;6.00;;;;;;;;4918421;28;45238;-77
2023/01/27 10:04:21;;;;;;;;;5.00;4.25;;;;;;;;4918487;28;45378;-77
2023/01/27 10:06:55;;;;;;;;;7.00;5.25;;;;;;;;4918443;28;45365;-77
2023/01/27 10:09:23;;;;;;;;;5.75;5.75;;;;;;;;4918416;28;46447;-78
2023/01/27 10:11:51;;;;;;;;;6.50;5.25;;;;;;;;4918329;28;45403;-76
2023/01/27 10:14:25;;;;;;;;;7.00;7.00;;;;;;;;4918221;28;45294;-77
2023/01/27 10:17:00;;;;;;;;;8.00;5.25;;;;;;;;4918365;28;45428;-76
2023/01/27 10:19:49;;;;;;;;;3.00;2.00;;;;;;;;4918210;28;45649;-78
2023/01/27 10:22:14;;;;;;;;;6.50;6.50;;;;;;;;4918033;28;45275;-77
2023/01/27 10:24:39;;;;;;;;;9.00;7.00;;;;;;;;4918382;28;45263;-76
2023/01/27 10:27:04;;;;;;;;;6.75;4.00;;;;;;;;4918372;28;45267;-77
2023/01/27 10:29:29;;;;;;;;;6.75;6.00;;;;;;;;4917973;28;46238;-77
2023/01/27 10:32:02;;;;;;;;;6.00;6.00;;;;;;;;4918144;28;45417;-76
2023/01/27 10:34:35;;;;;;;;;9.00;7.75;;;;;;;;4918220;28;45425;-76
2023/01/27 10:37:08;;;;;;;;;7.25;6.00;;;;;;;;4918156;28;45386;-78
2023/01/27 10:39:33;;;;;;;;;7.00;7.00;;;;;;;;4918003;28;46354;-77
2023/01/27 10:42:06;;;;;;;;;4.00;4.00;;;;;;;;4916849;28;45438;-76
2023/01/27 10:44:37;;;;;;;;;6.75;6.75;;;;;;;;4918158;28;45346;-76
2023/01/27 10:47:05;;;;;;;;;8.00;8.00;;;;;;;;4918024;28;45187;-77
2023/01/27 10:49:35;;;;;;;;;6.25;6.00;;;;;;;;4917820;28;47227;-77
2023/01/27 10:52:23;;;;;;;;;10.25;7.50;;;;;;;;4917516;28;45546;-76
2023/01/27 10:55:11;;;;;;;;;9.00;8.00;;;;;;;;4918107;28;45293;-77
2023/01/27 10:57:38;;;;;;;;;5.25;4.00;;;;;;;;4917919;28;45411;-77
2023/01/27 11:00:11;;;;;;;;;8.25;6.75;;;;;;;;4917868;28;45327;-77
2023/01/27 11:02:57;;;;;;;;;7.75;7.75;;;;;;;;4916393;28;45364;-76
2023/01/27 11:05:41;;;;;;;;;7.75;7.75;;;;;;;;4919728;28;45456;-75
2023/01/27 11:08:17;;;;;;;;;7.25;7.25;;;;;;;;4914595;28;45534;-78
2023/01/27 11:13:30;;;;;;;;;6.50;6.50;;;;;;;;4894983;29;45443;-78
2023/01/27 11:15:56;;;;;;;;;4.00;4.00;;;;;;;;4901882;28;45316;-78
2023/01/27 11:18:22;;;;;;;;;7.50;5.25;;;;;;;;4902039;28;45287;-77
2023/01/27 11:20:57;;;;;;;;;5.00;5.00;;;;;;;;4901775;28;47405;-77
2023/01/27 11:23:34;;;;;;;;;10.00;10.00;;;;;;;;4901956;28;45323;-77
2023/01/27 11:26:03;;;;;;;;;8.50;7.00;;;;;;;;4900962;28;45228;-76
2023/01/27 11:28:31;;;;;;;;;7.50;7.50;;;;;;;;4901677;29;45548;-76
2023/01/27 11:31:14;;;;;;;;;12.00;9.00;;;;;;;;4901387;28;45594;-75
2023/01/27 11:34:01;;;;;;;;;8.50;7.75;;;;;;;;4901693;28;45469;-76
2023/01/27 11:36:27;;;;;;;;;10.75;7.75;;;;;;;;4901558;28;45411;-76
2023/01/27 11:38:54;;;;;;;;;10.25;8.00;;;;;;;;4901272;28;45540;-76
2023/01/27 11:41:19;;;;;;;;;10.00;7.50;;;;;;;;4901651;28;45687;-78
2023/01/27 11:43:45;;;;;;;;;8.75;8.25;;;;;;;;4900348;28;45396;-76
2023/01/27 11:46:30;;;;;;;;;11.75;10.50;;;;;;;;4901816;28;45786;-77
2023/01/27 11:48:56;;;;;;;;;9.50;7.00;;;;;;;;4900273;29;45440;-77
2023/01/27 11:51:22;;;;;;;;;6.00;6.00;;;;;;;;4902227;28;45299;-77
2023/01/27 11:53:56;;;;;;;;;8.50;8.50;;;;;;;;4920735;28;45369;-76
2023/01/27 11:56:23;;;;;;;;;13.75;9.00;;;;;;;;4920340;28;45431;-76
2023/01/27 11:58:52;;;;;;;;;8.75;8.00;;;;;;;;4920116;28;45418;-77
2023/01/27 12:01:22;;;;;;;;;8.75;7.75;;;;;;;;4909441;28;47621;-75
2023/01/27 12:03:53;;;;;;;;;11.00;10.00;;;;;;;;4900394;28;45723;-76
2023/01/27 12:06:27;;;;;;;;;4.25;4.25;;;;;;;;4901284;28;45906;-77
2023/01/27 12:08:52;;;;;;;;;7.00;4.50;;;;;;;;4915170;28;45338;-78
2023/01/27 12:11:26;;;;;;;;;8.75;7.25;;;;;;;;4920559;28;45520;-75
2023/01/27 12:13:53;;;;;;;;;6.50;6.00;;;;;;;;4920319;28;45452;-75
2023/01/27 12:16:18;;;;;;;;;8.25;8.25;;;;;;;;4920280;28;45223;-77
2023/01/27 12:19:16;;;;;;;;;9.75;7.00;;;;;;;;4902928;28;45305;-77
2023/01/27 12:21:50;;;;;;;;;15.25;12.25;;;;;;;;4898567;28;47144;-74
2023/01/27 12:24:36;;;;;;;;;15.75;9.75;;;;;;;;4898628;28;45474;-75
2023/01/27 12:27:02;;;;;;;;;8.50;8.25;;;;;;;;4897907;29;45583;-75
2023/01/27 12:29:39;;;;;;;;;10.75;7.75;;;;;;;;4899544;28;45560;-75
2023/01/27 12:32:12;;;;;;;;;12.00;6.75;;;;;;;;4899141;28;45775;-75
2023/01/27 12:34:37;;;;;;;;;9.50;8.25;;;;;;;;4899695;29;45566;-75
2023/01/27 12:37:05;;;;;;;;;12.25;11.25;;;;;;;;4900433;29;45615;-76
2023/01/27 12:39:43;;;;;;;;;12.00;9.50;;;;;;;;4900429;29;45499;-75
2023/01/27 12:42:27;;;;;;;;;12.75;9.50;;;;;;;;4900052;29;47636;-78
2023/01/27 12:44:52;;;;;;;;;8.50;8.50;;;;;;;;4901613;29;45327;-77
2023/01/27 12:47:24;;;;;;;;;11.50;11.50;;;;;;;;4902971;29;45350;-76
2023/01/27 12:49:49;;;;;;;;;15.50;13.50;;;;;;;;4903663;28;45458;-76
2023/01/27 12:52:18;;;;;;;;;8.75;6.75;;;;;;;;4901733;28;45503;-78
2023/01/27 12:54:44;;;;;;;;;13.50;9.50;;;;;;;;4901718;28;45429;-77
2023/01/27 12:57:20;;;;;;;;;11.50;9.00;;;;;;;;4908092;28;45365;-78
2023/01/27 12:59:53;;;;;;;;;11.50;11.50;;;;;;;;4919899;28;45347;-78
2023/01/27 13:02:22;;;;;;;;;16.75;14.00;;;;;;;;4919138;28;46005;-76
2023/01/27 13:05:02;;;;;;;;;9.75;8.75;;;;;;;;4920110;28;45381;-77
2023/01/27 13:07:27;;;;;;;;;12.75;11.75;;;;;;;;4919714;28;45362;-77
2023/01/27 13:09:54;;;;;;;;;10.25;9.00;;;;;;;;4920064;28;45331;-77
2023/01/27 13:12:21;;;;;;;;;10.00;8.00;;;;;;;;4919400;28;45377;-76
2023/01/27 13:15:09;;;;;;;;;14.25;9.75;;;;;;;;4919673;28;45299;-78
2023/01/27 13:17:34;;;;;;;;;14.75;13.25;;;;;;;;4916236;28;45438;-77
2023/01/27 13:20:20;;;;;;;;;6.75;6.75;;;;;;;;4920000;28;45427;-76
2023/01/27 13:22:47;;;;;;;;;13.00;12.00;;;;;;;;4915346;28;46667;-74
2023/01/27 13:25:15;;;;;;;;;13.25;13.00;;;;;;;;4918885;28;45343;-74
2023/01/27 13:27:40;;;;;;;;;10.75;7.25;;;;;;;;4918431;28;45410;-75
2023/01/27 13:30:14;;;;;;;;;11.75;11.75;;;;;;;;4919322;28;45402;-75
2023/01/27 13:32:42;;;;;;;;;9.50;9.50;;;;;;;;4918802;28;46304;-74
2023/01/27 13:35:16;;;;;;;;;11.75;11.25;;;;;;;;4918877;28;45596;-76
2023/01/27 13:38:04;;;;;;;;;14.25;10.75;;;;;;;;4919002;28;45279;-74
2023/01/27 13:40:45;;;;;;;;;6.25;6.25;;;;;;;;4910419;28;45487;-74
2023/01/27 13:43:19;;;;;;;;;11.50;8.50;;;;;;;;4897106;29;47295;-74
2023/01/27 13:45:52;;;;;;;;;12.50;11.00;;;;;;;;4899300;28;45327;-75
2023/01/27 13:48:36;;;;;;;;;4.00;4.00;;;;;;;;4899599;28;45318;-75
2023/01/27 13:51:05;;;;;;;;;5.00;5.00;;;;;;;;4899007;28;45542;-75
2023/01/27 13:53:31;;;;;;;;;8.75;8.00;;;;;;;;4917212;28;45358;-74
2023/01/27 13:56:15;;;;;;;;;10.25;7.00;;;;;;;;4918351;28;45624;-75
2023/01/27 13:58:58;;;;;;;;;8.25;6.75;;;;;;;;4910401;28;45652;-75
2023/01/27 14:01:30;;;;;;;;;5.50;5.50;;;;;;;;4899728;28;45250;-76
2023/01/27 14:04:14;;;;;;;;;8.00;7.00;;;;;;;;4899014;28;47245;-75
2023/01/27 14:06:58;;;;;;;;;9.50;7.50;;;;;;;;4898891;28;45403;-75
2023/01/27 14:09:26;;;;;;;;;6.50;4.00;;;;;;;;4899034;28;45521;-75
2023/01/27 14:11:55;;;;;;;;;9.00;4.25;;;;;;;;4898884;28;45414;-74
2023/01/27 14:14:23;;;;;;;;;8.25;7.00;;;;;;;;4896638;29;47267;-75
2023/01/27 14:16:58;;;;;;;;;2.00;2.00;;;;;;;;4898015;28;45467;-75
2023/01/27 14:19:26;;;;;;;;;9.75;9.75;;;;;;;;4898672;28;45367;-75
2023/01/27 14:22:02;;;;;;;;;10.50;9.50;;;;;;;;4898731;28;45382;-75
2023/01/27 14:24:27;;;;;;;;;8.50;7.50;;;;;;;;4898703;29;46388;-75
2023/01/27 14:27:07;;;;;;;;;10.50;7.00;;;;;;;;4898998;28;45372;-74
2023/01/27 14:29:32;;;;;;;;;9.50;9.50;;;;;;;;4898784;28;45483;-74
2023/01/27 14:32:09;;;;;;;;;11.00;10.00;;;;;;;;4899108;28;45518;-76
2023/01/27 14:34:47;;;;;;;;;12.75;12.25;;;;;;;;4898949;28;46280;-76
2023/01/27 14:37:12;;;;;;;;;13.00;11.50;;;;;;;;4898983;28;45295;-76
2023/01/27 14:39:40;;;;;;;;;9.00;8.00;;;;;;;;4899153;28;45318;-76
2023/01/27 14:42:12;;;;;;;;;9.75;9.75;;;;;;;;4897716;29;45366;-77
2023/01/27 14:44:56;;;;;;;;;12.25;10.00;;;;;;;;4898656;28;47266;-76
2023/01/27 14:47:30;;;;;;;;;11.50;9.25;;;;;;;;4914310;28;45470;-76
2023/01/27 14:50:10;;;;;;;;;12.00;11.50;;;;;;;;4880207;29;45441;-77
2023/01/27 14:52:36;;;;;;;;;12.75;12.75;;;;;;;;4900734;28;45293;-76
2023/01/27 14:55:21;;;;;;;;;12.25;8.00;;;;;;;;4914652;28;45800;-75
2023/01/27 14:57:46;;;;;;;;;8.25;8.25;;;;;;;;4917111;28;45353;-76
2023/01/27 15:00:30;;;;;;;;;11.50;9.00;;;;;;;;4917902;28;45219;-76
2023/01/27 15:02:58;;;;;;;;;7.25;7.25;;;;;;;;4917733;28;45612;-73
2023/01/27 15:05:31;;;;;;;;;12.50;10.25;;;;;;;;4917529;28;47155;-73
2023/01/27 15:08:02;;;;;;;;;9.00;9.00;;;;;;;;4917742;28;45296;-73
2023/01/27 15:10:28;;;;;;;;;9.25;9.25;;;;;;;;4917582;28;45394;-73
2023/01/27 15:12:53;;;;;;;;;8.25;8.25;;;;;;;;4917554;28;45469;-73
2023/01/27 15:15:27;;;;;;;;;8.75;7.00;;;;;;;;4917310;28;46034;-73
2023/01/27 15:17:53;;;;;;;;;12.75;10.00;;;;;;;;4917634;28;45314;-73